sensor_id;sensor_type;location;lat;lon;timestamp;P1;durP1;ratioP1;P2;durP2;ratioP2
36715;SDS011;22699;51.034;3.730;2022-11-21T00:00:23;6.75;;;2.67;;
36715;SDS011;22699;51.034;3.730;2022-11-21T00:02:49;9.57;;;3.03;;
36715;SDS011;22699;51.034;3.730;2022-11-21T00:05:15;6.25;;;3.00;;
36715;SDS011;22699;51.034;3.730;2022-11-21T00:07:44;10.30;;;3.45;;
36715;SDS011;22699;51.034;3.730;2022-11-21T00:12:53;6.35;;;3.80;;
36715;SDS011;22699;51.034;3.730;2022-11-21T00:15:34;13.63;;;4.00;;
36715;SDS011;22699;51.034;3.730;2022-11-21T00:18:11;8.65;;;3.85;;
36715;SDS011;22699;51.034;3.730;2022-11-21T00:20:37;13.30;;;3.47;;
36715;SDS011;22699;51.034;3.730;2022-11-21T00:23:04;9.25;;;3.55;;
36715;SDS011;22699;51.034;3.730;2022-11-21T00:25:30;11.43;;;4.25;;
36715;SDS011;22699;51.034;3.730;2022-11-21T00:27:59;14.02;;;3.78;;
36715;SDS011;22699;51.034;3.730;2022-11-21T00:30:24;12.35;;;3.75;;
36715;SDS011;22699;51.034;3.730;2022-11-21T00:32:59;12.23;;;4.75;;
36715;SDS011;22699;51.034;3.730;2022-11-21T00:35:44;14.50;;;3.95;;
36715;SDS011;22699;51.034;3.730;2022-11-21T00:38:16;9.52;;;3.90;;
36715;SDS011;22699;51.034;3.730;2022-11-21T00:43:14;13.00;;;4.00;;
36715;SDS011;22699;51.034;3.730;2022-11-21T00:45:39;9.65;;;4.10;;
36715;SDS011;22699;51.034;3.730;2022-11-21T00:48:06;16.33;;;4.80;;
36715;SDS011;22699;51.034;3.730;2022-11-21T00:50:31;15.70;;;4.03;;
36715;SDS011;22699;51.034;3.730;2022-11-21T00:55:26;8.82;;;3.50;;
36715;SDS011;22699;51.034;3.730;2022-11-21T00:57:51;12.13;;;3.30;;
36715;SDS011;22699;51.034;3.730;2022-11-21T01:00:17;7.20;;;3.38;;
36715;SDS011;22699;51.034;3.730;2022-11-21T01:02:43;6.40;;;3.28;;
36715;SDS011;22699;51.034;3.730;2022-11-21T01:07:46;7.88;;;3.15;;
36715;SDS011;22699;51.034;3.730;2022-11-21T01:10:20;12.00;;;3.40;;
36715;SDS011;22699;51.034;3.730;2022-11-21T01:12:55;10.77;;;3.28;;
36715;SDS011;22699;51.034;3.730;2022-11-21T01:15:20;10.65;;;3.10;;
36715;SDS011;22699;51.034;3.730;2022-11-21T01:17:48;8.40;;;2.90;;
36715;SDS011;22699;51.034;3.730;2022-11-21T01:20:15;12.15;;;3.22;;
36715;SDS011;22699;51.034;3.730;2022-11-21T01:27:41;8.20;;;3.30;;
36715;SDS011;22699;51.034;3.730;2022-11-21T01:30:13;6.65;;;3.08;;
36715;SDS011;22699;51.034;3.730;2022-11-21T01:32:39;7.00;;;3.00;;
36715;SDS011;22699;51.034;3.730;2022-11-21T01:35:06;13.90;;;3.20;;
36715;SDS011;22699;51.034;3.730;2022-11-21T01:37:41;7.87;;;2.83;;
36715;SDS011;22699;51.034;3.730;2022-11-21T01:40:12;14.20;;;3.15;;
36715;SDS011;22699;51.034;3.730;2022-11-21T01:43:13;9.82;;;2.92;;
36715;SDS011;22699;51.034;3.730;2022-11-21T01:46:13;7.80;;;2.90;;
36715;SDS011;22699;51.034;3.730;2022-11-21T01:48:38;7.82;;;2.70;;
36715;SDS011;22699;51.034;3.730;2022-11-21T01:57:26;6.13;;;2.42;;
36715;SDS011;22699;51.034;3.730;2022-11-21T02:00:09;7.30;;;2.47;;
36715;SDS011;22699;51.034;3.730;2022-11-21T02:03:11;5.45;;;2.15;;
36715;SDS011;22699;51.034;3.730;2022-11-21T02:05:43;9.15;;;2.70;;
36715;SDS011;22699;51.034;3.730;2022-11-21T02:08:17;7.45;;;2.25;;
36715;SDS011;22699;51.034;3.730;2022-11-21T02:14:04;10.18;;;2.00;;
36715;SDS011;22699;51.034;3.730;2022-11-21T02:16:29;5.60;;;1.75;;
36715;SDS011;22699;51.034;3.730;2022-11-21T02:18:58;4.38;;;1.77;;
36715;SDS011;22699;51.034;3.730;2022-11-21T02:21:59;6.30;;;1.95;;
36715;SDS011;22699;51.034;3.730;2022-11-21T02:27:29;4.95;;;2.22;;
36715;SDS011;22699;51.034;3.730;2022-11-21T02:29:58;5.40;;;1.63;;
36715;SDS011;22699;51.034;3.730;2022-11-21T02:32:36;5.50;;;1.70;;
36715;SDS011;22699;51.034;3.730;2022-11-21T02:35:06;7.70;;;2.70;;
36715;SDS011;22699;51.034;3.730;2022-11-21T02:37:32;5.50;;;1.80;;
36715;SDS011;22699;51.034;3.730;2022-11-21T02:40:01;7.45;;;2.28;;
36715;SDS011;22699;51.034;3.730;2022-11-21T02:45:13;4.75;;;1.60;;
36715;SDS011;22699;51.034;3.730;2022-11-21T02:47:42;4.65;;;2.40;;
36715;SDS011;22699;51.034;3.730;2022-11-21T02:50:14;5.65;;;2.08;;
36715;SDS011;22699;51.034;3.730;2022-11-21T02:52:45;5.93;;;1.75;;
36715;SDS011;22699;51.034;3.730;2022-11-21T02:55:10;5.93;;;1.92;;
36715;SDS011;22699;51.034;3.730;2022-11-21T02:57:37;4.93;;;2.10;;
36715;SDS011;22699;51.034;3.730;2022-11-21T03:00:04;4.13;;;1.60;;
36715;SDS011;22699;51.034;3.730;2022-11-21T03:02:36;8.07;;;1.90;;
36715;SDS011;22699;51.034;3.730;2022-11-21T03:05:02;4.50;;;2.00;;
36715;SDS011;22699;51.034;3.730;2022-11-21T03:07:44;7.28;;;1.90;;
36715;SDS011;22699;51.034;3.730;2022-11-21T03:10:20;4.55;;;2.03;;
36715;SDS011;22699;51.034;3.730;2022-11-21T03:15:45;7.90;;;2.67;;
36715;SDS011;22699;51.034;3.730;2022-11-21T03:18:14;8.57;;;2.75;;
36715;SDS011;22699;51.034;3.730;2022-11-21T03:20:48;13.13;;;3.20;;
36715;SDS011;22699;51.034;3.730;2022-11-21T03:23:17;7.75;;;2.78;;
36715;SDS011;22699;51.034;3.730;2022-11-21T03:25:42;5.60;;;2.42;;
36715;SDS011;22699;51.034;3.730;2022-11-21T03:28:11;12.00;;;3.58;;
36715;SDS011;22699;51.034;3.730;2022-11-21T03:30:38;10.52;;;2.50;;
36715;SDS011;22699;51.034;3.730;2022-11-21T03:33:06;10.07;;;2.80;;
36715;SDS011;22699;51.034;3.730;2022-11-21T03:35:32;8.90;;;3.25;;
36715;SDS011;22699;51.034;3.730;2022-11-21T03:38:01;5.85;;;2.58;;
36715;SDS011;22699;51.034;3.730;2022-11-21T03:40:27;7.68;;;2.53;;
36715;SDS011;22699;51.034;3.730;2022-11-21T03:43:21;8.35;;;3.08;;
36715;SDS011;22699;51.034;3.730;2022-11-21T03:45:50;4.60;;;2.97;;
36715;SDS011;22699;51.034;3.730;2022-11-21T03:48:15;8.18;;;3.70;;
36715;SDS011;22699;51.034;3.730;2022-11-21T03:50:42;5.57;;;3.40;;
36715;SDS011;22699;51.034;3.730;2022-11-21T03:53:09;4.72;;;2.92;;
36715;SDS011;22699;51.034;3.730;2022-11-21T03:55:34;8.30;;;3.88;;
36715;SDS011;22699;51.034;3.730;2022-11-21T03:58:00;6.78;;;2.80;;
36715;SDS011;22699;51.034;3.730;2022-11-21T04:00:26;10.18;;;3.17;;
36715;SDS011;22699;51.034;3.730;2022-11-21T04:02:51;10.38;;;2.90;;
36715;SDS011;22699;51.034;3.730;2022-11-21T04:05:17;5.30;;;2.90;;
36715;SDS011;22699;51.034;3.730;2022-11-21T04:07:45;5.47;;;2.40;;
36715;SDS011;22699;51.034;3.730;2022-11-21T04:10:12;5.05;;;2.13;;
36715;SDS011;22699;51.034;3.730;2022-11-21T04:12:51;10.13;;;2.70;;
36715;SDS011;22699;51.034;3.730;2022-11-21T04:17:54;6.53;;;2.35;;
36715;SDS011;22699;51.034;3.730;2022-11-21T04:20:22;5.80;;;2.55;;
36715;SDS011;22699;51.034;3.730;2022-11-21T04:22:48;4.82;;;2.22;;
36715;SDS011;22699;51.034;3.730;2022-11-21T04:25:16;6.65;;;2.63;;
36715;SDS011;22699;51.034;3.730;2022-11-21T04:27:47;10.02;;;2.50;;
36715;SDS011;22699;51.034;3.730;2022-11-21T04:30:19;6.55;;;2.40;;
36715;SDS011;22699;51.034;3.730;2022-11-21T04:32:44;6.55;;;2.78;;
36715;SDS011;22699;51.034;3.730;2022-11-21T04:35:11;4.78;;;2.17;;
36715;SDS011;22699;51.034;3.730;2022-11-21T04:41:17;4.10;;;2.28;;
36715;SDS011;22699;51.034;3.730;2022-11-21T04:43:42;6.72;;;2.33;;
36715;SDS011;22699;51.034;3.730;2022-11-21T04:46:14;4.95;;;2.33;;
36715;SDS011;22699;51.034;3.730;2022-11-21T04:49:14;11.00;;;2.88;;
36715;SDS011;22699;51.034;3.730;2022-11-21T04:51:40;8.18;;;2.25;;
36715;SDS011;22699;51.034;3.730;2022-11-21T04:54:05;5.95;;;2.45;;
36715;SDS011;22699;51.034;3.730;2022-11-21T04:56:40;6.03;;;2.35;;
36715;SDS011;22699;51.034;3.730;2022-11-21T04:59:14;6.75;;;2.45;;
36715;SDS011;22699;51.034;3.730;2022-11-21T05:01:41;7.30;;;2.75;;
36715;SDS011;22699;51.034;3.730;2022-11-21T05:04:06;8.57;;;2.33;;
36715;SDS011;22699;51.034;3.730;2022-11-21T05:06:33;7.00;;;2.55;;
36715;SDS011;22699;51.034;3.730;2022-11-21T05:09:24;8.02;;;2.50;;
36715;SDS011;22699;51.034;3.730;2022-11-21T05:11:49;6.53;;;2.63;;
36715;SDS011;22699;51.034;3.730;2022-11-21T05:14:48;10.13;;;2.50;;
36715;SDS011;22699;51.034;3.730;2022-11-21T05:17:23;6.30;;;2.90;;
36715;SDS011;22699;51.034;3.730;2022-11-21T05:19:52;10.10;;;3.00;;
36715;SDS011;22699;51.034;3.730;2022-11-21T05:22:27;7.45;;;3.05;;
36715;SDS011;22699;51.034;3.730;2022-11-21T05:24:55;6.40;;;2.67;;
36715;SDS011;22699;51.034;3.730;2022-11-21T05:27:33;8.95;;;3.08;;
36715;SDS011;22699;51.034;3.730;2022-11-21T05:29:59;6.88;;;3.38;;
36715;SDS011;22699;51.034;3.730;2022-11-21T05:32:58;8.40;;;2.90;;
36715;SDS011;22699;51.034;3.730;2022-11-21T05:35:24;8.05;;;3.05;;
36715;SDS011;22699;51.034;3.730;2022-11-21T05:37:59;7.38;;;2.70;;
36715;SDS011;22699;51.034;3.730;2022-11-21T05:40:25;10.35;;;3.38;;
36715;SDS011;22699;51.034;3.730;2022-11-21T05:42:50;7.13;;;2.97;;
36715;SDS011;22699;51.034;3.730;2022-11-21T05:45:35;8.10;;;2.90;;
36715;SDS011;22699;51.034;3.730;2022-11-21T05:48:01;7.00;;;2.85;;
36715;SDS011;22699;51.034;3.730;2022-11-21T05:50:26;7.53;;;2.80;;
36715;SDS011;22699;51.034;3.730;2022-11-21T05:52:52;10.90;;;3.05;;
36715;SDS011;22699;51.034;3.730;2022-11-21T05:57:46;13.05;;;3.40;;
36715;SDS011;22699;51.034;3.730;2022-11-21T06:00:24;7.57;;;3.00;;
36715;SDS011;22699;51.034;3.730;2022-11-21T06:02:50;8.25;;;3.08;;
36715;SDS011;22699;51.034;3.730;2022-11-21T06:05:34;6.90;;;2.83;;
36715;SDS011;22699;51.034;3.730;2022-11-21T06:08:00;6.95;;;2.97;;
36715;SDS011;22699;51.034;3.730;2022-11-21T06:10:34;8.35;;;2.45;;
36715;SDS011;22699;51.034;3.730;2022-11-21T06:13:03;8.68;;;3.15;;
36715;SDS011;22699;51.034;3.730;2022-11-21T06:15:51;10.30;;;3.08;;
36715;SDS011;22699;51.034;3.730;2022-11-21T06:18:48;7.30;;;2.85;;
36715;SDS011;22699;51.034;3.730;2022-11-21T06:21:35;8.45;;;3.15;;
36715;SDS011;22699;51.034;3.730;2022-11-21T06:24:02;7.68;;;2.80;;
36715;SDS011;22699;51.034;3.730;2022-11-21T06:28:59;9.98;;;2.70;;
36715;SDS011;22699;51.034;3.730;2022-11-21T06:31:31;12.88;;;3.58;;
36715;SDS011;22699;51.034;3.730;2022-11-21T06:33:59;6.07;;;2.60;;
36715;SDS011;22699;51.034;3.730;2022-11-21T06:36:31;6.10;;;2.65;;
36715;SDS011;22699;51.034;3.730;2022-11-21T06:38:56;9.82;;;2.97;;
36715;SDS011;22699;51.034;3.730;2022-11-21T06:41:29;7.10;;;2.95;;
36715;SDS011;22699;51.034;3.730;2022-11-21T06:44:09;6.97;;;2.80;;
36715;SDS011;22699;51.034;3.730;2022-11-21T06:46:37;6.45;;;2.88;;
36715;SDS011;22699;51.034;3.730;2022-11-21T06:49:03;8.23;;;3.22;;
36715;SDS011;22699;51.034;3.730;2022-11-21T06:51:32;11.95;;;2.90;;
36715;SDS011;22699;51.034;3.730;2022-11-21T06:53:59;8.30;;;3.17;;
36715;SDS011;22699;51.034;3.730;2022-11-21T06:59:00;6.93;;;3.38;;
36715;SDS011;22699;51.034;3.730;2022-11-21T07:03:54;9.23;;;3.22;;
36715;SDS011;22699;51.034;3.730;2022-11-21T07:06:20;9.68;;;3.20;;
36715;SDS011;22699;51.034;3.730;2022-11-21T07:08:54;10.55;;;3.42;;
36715;SDS011;22699;51.034;3.730;2022-11-21T07:11:34;7.53;;;2.85;;
36715;SDS011;22699;51.034;3.730;2022-11-21T07:13:59;11.07;;;2.92;;
36715;SDS011;22699;51.034;3.730;2022-11-21T07:16:26;7.40;;;2.50;;
36715;SDS011;22699;51.034;3.730;2022-11-21T07:18:55;8.30;;;3.15;;
36715;SDS011;22699;51.034;3.730;2022-11-21T07:21:22;10.57;;;3.05;;
36715;SDS011;22699;51.034;3.730;2022-11-21T07:24:08;10.48;;;3.38;;
36715;SDS011;22699;51.034;3.730;2022-11-21T07:26:36;12.85;;;3.63;;
36715;SDS011;22699;51.034;3.730;2022-11-21T07:29:01;10.27;;;3.67;;
36715;SDS011;22699;51.034;3.730;2022-11-21T07:31:39;8.75;;;3.53;;
36715;SDS011;22699;51.034;3.730;2022-11-21T07:34:10;11.82;;;2.90;;
36715;SDS011;22699;51.034;3.730;2022-11-21T07:36:47;11.38;;;2.85;;
36715;SDS011;22699;51.034;3.730;2022-11-21T07:39:27;6.80;;;2.85;;
36715;SDS011;22699;51.034;3.730;2022-11-21T07:41:52;7.70;;;2.50;;
36715;SDS011;22699;51.034;3.730;2022-11-21T07:47:05;9.95;;;2.85;;
36715;SDS011;22699;51.034;3.730;2022-11-21T07:49:32;6.07;;;2.83;;
36715;SDS011;22699;51.034;3.730;2022-11-21T07:51:58;8.27;;;3.20;;
36715;SDS011;22699;51.034;3.730;2022-11-21T07:54:23;10.55;;;2.67;;
36715;SDS011;22699;51.034;3.730;2022-11-21T07:56:52;8.63;;;2.55;;
36715;SDS011;22699;51.034;3.730;2022-11-21T07:59:19;9.57;;;3.13;;
36715;SDS011;22699;51.034;3.730;2022-11-21T08:01:44;10.85;;;3.78;;
36715;SDS011;22699;51.034;3.730;2022-11-21T08:04:10;9.88;;;3.05;;
36715;SDS011;22699;51.034;3.730;2022-11-21T08:06:48;8.35;;;3.05;;
36715;SDS011;22699;51.034;3.730;2022-11-21T08:09:17;10.75;;;3.47;;
36715;SDS011;22699;51.034;3.730;2022-11-21T08:11:42;8.32;;;3.45;;
36715;SDS011;22699;51.034;3.730;2022-11-21T08:14:09;11.25;;;2.92;;
36715;SDS011;22699;51.034;3.730;2022-11-21T08:16:34;11.05;;;3.78;;
36715;SDS011;22699;51.034;3.730;2022-11-21T08:19:02;11.65;;;4.20;;
36715;SDS011;22699;51.034;3.730;2022-11-21T08:21:33;14.60;;;3.60;;
36715;SDS011;22699;51.034;3.730;2022-11-21T08:24:02;12.70;;;3.20;;
36715;SDS011;22699;51.034;3.730;2022-11-21T08:26:28;12.25;;;3.85;;
36715;SDS011;22699;51.034;3.730;2022-11-21T08:28:54;14.80;;;4.93;;
36715;SDS011;22699;51.034;3.730;2022-11-21T08:31:20;17.48;;;4.85;;
36715;SDS011;22699;51.034;3.730;2022-11-21T08:33:49;8.13;;;3.53;;
36715;SDS011;22699;51.034;3.730;2022-11-21T08:36:20;11.32;;;3.20;;
36715;SDS011;22699;51.034;3.730;2022-11-21T08:38:52;9.40;;;3.92;;
36715;SDS011;22699;51.034;3.730;2022-11-21T08:41:17;9.52;;;3.38;;
36715;SDS011;22699;51.034;3.730;2022-11-21T08:44:04;10.32;;;4.32;;
36715;SDS011;22699;51.034;3.730;2022-11-21T08:46:34;8.57;;;2.88;;
36715;SDS011;22699;51.034;3.730;2022-11-21T08:49:07;14.65;;;2.80;;
36715;SDS011;22699;51.034;3.730;2022-11-21T08:51:34;9.50;;;3.20;;
36715;SDS011;22699;51.034;3.730;2022-11-21T08:54:09;15.07;;;3.80;;
36715;SDS011;22699;51.034;3.730;2022-11-21T08:56:39;10.65;;;3.17;;
36715;SDS011;22699;51.034;3.730;2022-11-21T08:59:04;10.45;;;3.33;;
36715;SDS011;22699;51.034;3.730;2022-11-21T09:01:30;9.57;;;2.92;;
36715;SDS011;22699;51.034;3.730;2022-11-21T09:03:57;12.60;;;3.80;;
36715;SDS011;22699;51.034;3.730;2022-11-21T09:06:22;9.98;;;3.40;;
36715;SDS011;22699;51.034;3.730;2022-11-21T09:08:48;8.07;;;2.83;;
36715;SDS011;22699;51.034;3.730;2022-11-21T09:11:14;9.73;;;2.45;;
36715;SDS011;22699;51.034;3.730;2022-11-21T09:13:39;7.38;;;2.78;;
36715;SDS011;22699;51.034;3.730;2022-11-21T09:16:05;7.18;;;2.88;;
36715;SDS011;22699;51.034;3.730;2022-11-21T09:18:55;17.70;;;4.22;;
36715;SDS011;22699;51.034;3.730;2022-11-21T09:21:21;17.55;;;2.97;;
36715;SDS011;22699;51.034;3.730;2022-11-21T09:23:47;8.48;;;2.58;;
36715;SDS011;22699;51.034;3.730;2022-11-21T09:26:15;11.05;;;3.28;;
36715;SDS011;22699;51.034;3.730;2022-11-21T09:28:40;12.07;;;3.22;;
36715;SDS011;22699;51.034;3.730;2022-11-21T09:31:06;13.50;;;4.45;;
36715;SDS011;22699;51.034;3.730;2022-11-21T09:33:32;15.65;;;4.03;;
36715;SDS011;22699;51.034;3.730;2022-11-21T09:35:58;10.75;;;3.15;;
36715;SDS011;22699;51.034;3.730;2022-11-21T09:38:34;8.90;;;3.05;;
36715;SDS011;22699;51.034;3.730;2022-11-21T09:41:06;14.57;;;3.53;;
36715;SDS011;22699;51.034;3.730;2022-11-21T09:46:59;7.63;;;2.90;;
36715;SDS011;22699;51.034;3.730;2022-11-21T09:49:46;11.57;;;3.00;;
36715;SDS011;22699;51.034;3.730;2022-11-21T09:52:18;10.35;;;3.42;;
36715;SDS011;22699;51.034;3.730;2022-11-21T09:54:48;10.40;;;3.67;;
36715;SDS011;22699;51.034;3.730;2022-11-21T09:59:44;11.05;;;3.22;;
36715;SDS011;22699;51.034;3.730;2022-11-21T10:02:15;9.35;;;3.15;;
36715;SDS011;22699;51.034;3.730;2022-11-21T10:04:44;13.55;;;3.70;;
36715;SDS011;22699;51.034;3.730;2022-11-21T10:07:14;12.50;;;3.67;;
36715;SDS011;22699;51.034;3.730;2022-11-21T10:10:49;12.05;;;4.30;;
36715;SDS011;22699;51.034;3.730;2022-11-21T10:13:14;10.15;;;3.78;;
36715;SDS011;22699;51.034;3.730;2022-11-21T10:19:04;13.93;;;5.72;;
36715;SDS011;22699;51.034;3.730;2022-11-21T10:27:14;12.05;;;4.18;;
36715;SDS011;22699;51.034;3.730;2022-11-21T10:29:49;9.73;;;3.30;;
36715;SDS011;22699;51.034;3.730;2022-11-21T10:34:50;7.00;;;2.97;;
36715;SDS011;22699;51.034;3.730;2022-11-21T10:37:30;8.80;;;3.40;;
36715;SDS011;22699;51.034;3.730;2022-11-21T10:40:44;14.03;;;4.53;;
36715;SDS011;22699;51.034;3.730;2022-11-21T10:46:21;10.05;;;4.18;;
36715;SDS011;22699;51.034;3.730;2022-11-21T10:48:54;7.22;;;3.88;;
36715;SDS011;22699;51.034;3.730;2022-11-21T10:54:05;12.13;;;5.75;;
36715;SDS011;22699;51.034;3.730;2022-11-21T10:56:53;18.45;;;9.15;;
36715;SDS011;22699;51.034;3.730;2022-11-21T10:59:27;19.70;;;8.88;;
36715;SDS011;22699;51.034;3.730;2022-11-21T11:04:46;9.98;;;6.35;;
36715;SDS011;22699;51.034;3.730;2022-11-21T11:07:35;11.48;;;6.28;;
36715;SDS011;22699;51.034;3.730;2022-11-21T11:10:17;11.20;;;6.05;;
36715;SDS011;22699;51.034;3.730;2022-11-21T11:18:53;12.07;;;5.68;;
36715;SDS011;22699;51.034;3.730;2022-11-21T11:21:43;13.80;;;6.82;;
36715;SDS011;22699;51.034;3.730;2022-11-21T11:24:22;12.00;;;6.22;;
36715;SDS011;22699;51.034;3.730;2022-11-21T11:26:55;11.27;;;7.00;;
36715;SDS011;22699;51.034;3.730;2022-11-21T11:29:27;14.35;;;7.32;;
36715;SDS011;22699;51.034;3.730;2022-11-21T11:32:16;14.05;;;7.70;;
36715;SDS011;22699;51.034;3.730;2022-11-21T11:34:53;12.82;;;7.72;;
36715;SDS011;22699;51.034;3.730;2022-11-21T11:37:41;11.82;;;7.47;;
36715;SDS011;22699;51.034;3.730;2022-11-21T11:40:27;15.02;;;8.60;;
36715;SDS011;22699;51.034;3.730;2022-11-21T11:46:00;16.00;;;8.70;;
36715;SDS011;22699;51.034;3.730;2022-11-21T11:49:11;12.48;;;7.78;;
36715;SDS011;22699;51.034;3.730;2022-11-21T11:51:47;13.73;;;7.38;;
36715;SDS011;22699;51.034;3.730;2022-11-21T11:54:43;13.98;;;7.85;;
36715;SDS011;22699;51.034;3.730;2022-11-21T11:57:11;15.05;;;8.10;;
36715;SDS011;22699;51.034;3.730;2022-11-21T11:59:43;22.77;;;8.70;;
36715;SDS011;22699;51.034;3.730;2022-11-21T12:02:32;15.77;;;8.50;;
36715;SDS011;22699;51.034;3.730;2022-11-21T12:05:19;14.20;;;8.80;;
36715;SDS011;22699;51.034;3.730;2022-11-21T12:07:55;17.38;;;8.52;;
36715;SDS011;22699;51.034;3.730;2022-11-21T12:13:26;15.43;;;8.73;;
36715;SDS011;22699;51.034;3.730;2022-11-21T12:15:54;15.02;;;8.30;;
36715;SDS011;22699;51.034;3.730;2022-11-21T12:18:25;16.13;;;8.85;;
36715;SDS011;22699;51.034;3.730;2022-11-21T12:23:53;18.88;;;9.10;;
36715;SDS011;22699;51.034;3.730;2022-11-21T12:26:35;11.60;;;6.70;;
36715;SDS011;22699;51.034;3.730;2022-11-21T12:35:20;14.80;;;7.22;;
36715;SDS011;22699;51.034;3.730;2022-11-21T12:38:01;17.27;;;7.68;;
36715;SDS011;22699;51.034;3.730;2022-11-21T12:43:30;17.90;;;7.25;;
36715;SDS011;22699;51.034;3.730;2022-11-21T12:46:06;15.80;;;7.05;;
36715;SDS011;22699;51.034;3.730;2022-11-21T12:49:06;18.98;;;7.88;;
36715;SDS011;22699;51.034;3.730;2022-11-21T12:52:12;18.80;;;8.15;;
36715;SDS011;22699;51.034;3.730;2022-11-21T12:55:07;16.98;;;8.70;;
36715;SDS011;22699;51.034;3.730;2022-11-21T13:00:50;20.23;;;8.10;;
36715;SDS011;22699;51.034;3.730;2022-11-21T13:06:01;17.92;;;7.57;;
36715;SDS011;22699;51.034;3.730;2022-11-21T13:08:30;14.82;;;7.95;;
36715;SDS011;22699;51.034;3.730;2022-11-21T13:12:02;17.40;;;6.78;;
36715;SDS011;22699;51.034;3.730;2022-11-21T13:14:17;15.25;;;7.20;;
36715;SDS011;22699;51.034;3.730;2022-11-21T13:20:04;17.65;;;6.72;;
36715;SDS011;22699;51.034;3.730;2022-11-21T13:22:47;20.40;;;6.78;;
36715;SDS011;22699;51.034;3.730;2022-11-21T13:30:49;11.02;;;5.68;;
36715;SDS011;22699;51.034;3.730;2022-11-21T13:44:38;12.15;;;5.97;;
36715;SDS011;22699;51.034;3.730;2022-11-21T13:49:43;14.68;;;5.38;;
36715;SDS011;22699;51.034;3.730;2022-11-21T13:57:32;9.32;;;4.20;;
36715;SDS011;22699;51.034;3.730;2022-11-21T14:01:14;15.02;;;4.70;;
36715;SDS011;22699;51.034;3.730;2022-11-21T14:05:58;9.95;;;4.70;;
36715;SDS011;22699;51.034;3.730;2022-11-21T14:08:27;13.40;;;4.18;;
36715;SDS011;22699;51.034;3.730;2022-11-21T14:10:54;12.27;;;4.90;;
36715;SDS011;22699;51.034;3.730;2022-11-21T14:13:27;14.65;;;4.70;;
36715;SDS011;22699;51.034;3.730;2022-11-21T14:18:23;10.20;;;4.38;;
36715;SDS011;22699;51.034;3.730;2022-11-21T14:20:54;14.27;;;4.95;;
36715;SDS011;22699;51.034;3.730;2022-11-21T14:23:31;15.35;;;4.07;;
36715;SDS011;22699;51.034;3.730;2022-11-21T14:25:59;12.00;;;3.95;;
36715;SDS011;22699;51.034;3.730;2022-11-21T14:28:32;15.07;;;4.78;;
36715;SDS011;22699;51.034;3.730;2022-11-21T14:38:44;16.75;;;5.75;;
36715;SDS011;22699;51.034;3.730;2022-11-21T14:41:20;11.63;;;6.63;;
36715;SDS011;22699;51.034;3.730;2022-11-21T14:46:28;13.43;;;6.15;;
36715;SDS011;22699;51.034;3.730;2022-11-21T14:48:54;10.77;;;4.95;;
36715;SDS011;22699;51.034;3.730;2022-11-21T14:51:23;16.10;;;5.60;;
36715;SDS011;22699;51.034;3.730;2022-11-21T14:53:52;11.80;;;5.45;;
36715;SDS011;22699;51.034;3.730;2022-11-21T14:56:20;11.55;;;4.57;;
36715;SDS011;22699;51.034;3.730;2022-11-21T14:58:57;11.52;;;4.00;;
36715;SDS011;22699;51.034;3.730;2022-11-21T15:01:32;8.48;;;3.85;;
36715;SDS011;22699;51.034;3.730;2022-11-21T15:04:26;11.15;;;4.53;;
36715;SDS011;22699;51.034;3.730;2022-11-21T15:06:56;10.77;;;3.65;;
36715;SDS011;22699;51.034;3.730;2022-11-21T15:09:22;14.30;;;4.15;;
36715;SDS011;22699;51.034;3.730;2022-11-21T15:11:51;9.88;;;3.13;;
36715;SDS011;22699;51.034;3.730;2022-11-21T15:17:09;7.30;;;2.60;;
36715;SDS011;22699;51.034;3.730;2022-11-21T15:19:45;15.45;;;3.55;;
36715;SDS011;22699;51.034;3.730;2022-11-21T15:22:45;11.52;;;3.30;;
36715;SDS011;22699;51.034;3.730;2022-11-21T15:25:25;12.48;;;3.25;;
36715;SDS011;22699;51.034;3.730;2022-11-21T15:28:14;10.65;;;3.45;;
36715;SDS011;22699;51.034;3.730;2022-11-21T15:30:40;8.85;;;3.88;;
36715;SDS011;22699;51.034;3.730;2022-11-21T15:35:47;12.57;;;4.28;;
36715;SDS011;22699;51.034;3.730;2022-11-21T15:43:37;8.10;;;3.35;;
36715;SDS011;22699;51.034;3.730;2022-11-21T15:46:30;9.35;;;3.47;;
36715;SDS011;22699;51.034;3.730;2022-11-21T15:49:06;9.02;;;3.13;;
36715;SDS011;22699;51.034;3.730;2022-11-21T15:51:40;11.85;;;4.93;;
36715;SDS011;22699;51.034;3.730;2022-11-21T15:54:17;15.27;;;3.73;;
36715;SDS011;22699;51.034;3.730;2022-11-21T15:56:46;10.55;;;3.45;;
36715;SDS011;22699;51.034;3.730;2022-11-21T15:59:13;9.85;;;3.45;;
36715;SDS011;22699;51.034;3.730;2022-11-21T16:01:40;11.88;;;3.05;;
36715;SDS011;22699;51.034;3.730;2022-11-21T16:04:10;13.13;;;3.33;;
36715;SDS011;22699;51.034;3.730;2022-11-21T16:06:36;9.93;;;3.03;;
36715;SDS011;22699;51.034;3.730;2022-11-21T16:09:02;9.88;;;3.58;;
36715;SDS011;22699;51.034;3.730;2022-11-21T16:11:34;11.55;;;3.30;;
36715;SDS011;22699;51.034;3.730;2022-11-21T16:14:18;7.60;;;3.50;;
36715;SDS011;22699;51.034;3.730;2022-11-21T16:16:44;10.68;;;3.65;;
36715;SDS011;22699;51.034;3.730;2022-11-21T16:19:14;10.75;;;3.80;;
36715;SDS011;22699;51.034;3.730;2022-11-21T16:21:46;13.32;;;3.90;;
36715;SDS011;22699;51.034;3.730;2022-11-21T16:24:15;13.18;;;3.55;;
36715;SDS011;22699;51.034;3.730;2022-11-21T16:26:42;11.93;;;3.80;;
36715;SDS011;22699;51.034;3.730;2022-11-21T16:29:08;13.88;;;3.92;;
36715;SDS011;22699;51.034;3.730;2022-11-21T16:31:35;10.68;;;3.72;;
36715;SDS011;22699;51.034;3.730;2022-11-21T16:34:00;13.90;;;4.28;;
36715;SDS011;22699;51.034;3.730;2022-11-21T16:36:27;9.35;;;3.20;;
36715;SDS011;22699;51.034;3.730;2022-11-21T16:38:54;12.35;;;3.53;;
36715;SDS011;22699;51.034;3.730;2022-11-21T16:41:22;8.88;;;3.30;;
36715;SDS011;22699;51.034;3.730;2022-11-21T16:44:02;10.75;;;3.42;;
36715;SDS011;22699;51.034;3.730;2022-11-21T16:46:28;16.67;;;3.30;;
36715;SDS011;22699;51.034;3.730;2022-11-21T16:48:59;12.45;;;3.58;;
36715;SDS011;22699;51.034;3.730;2022-11-21T16:51:25;10.93;;;3.30;;
36715;SDS011;22699;51.034;3.730;2022-11-21T16:53:53;13.45;;;4.32;;
36715;SDS011;22699;51.034;3.730;2022-11-21T16:56:20;13.15;;;3.70;;
36715;SDS011;22699;51.034;3.730;2022-11-21T16:59:09;10.05;;;3.83;;
36715;SDS011;22699;51.034;3.730;2022-11-21T17:01:35;7.32;;;3.00;;
36715;SDS011;22699;51.034;3.730;2022-11-21T17:04:05;10.70;;;3.40;;
36715;SDS011;22699;51.034;3.730;2022-11-21T17:06:34;10.77;;;3.75;;
36715;SDS011;22699;51.034;3.730;2022-11-21T17:09:01;8.35;;;3.25;;
36715;SDS011;22699;51.034;3.730;2022-11-21T17:11:30;10.98;;;3.47;;
36715;SDS011;22699;51.034;3.730;2022-11-21T17:14:00;10.60;;;3.80;;
36715;SDS011;22699;51.034;3.730;2022-11-21T17:16:28;15.30;;;3.22;;
36715;SDS011;22699;51.034;3.730;2022-11-21T17:18:55;9.07;;;3.20;;
36715;SDS011;22699;51.034;3.730;2022-11-21T17:21:26;16.17;;;3.60;;
36715;SDS011;22699;51.034;3.730;2022-11-21T17:23:54;10.43;;;2.95;;
36715;SDS011;22699;51.034;3.730;2022-11-21T17:26:21;10.60;;;2.95;;
36715;SDS011;22699;51.034;3.730;2022-11-21T17:28:54;13.10;;;2.95;;
36715;SDS011;22699;51.034;3.730;2022-11-21T17:31:21;14.50;;;4.32;;
36715;SDS011;22699;51.034;3.730;2022-11-21T17:33:47;12.75;;;2.92;;
36715;SDS011;22699;51.034;3.730;2022-11-21T17:36:18;10.85;;;3.13;;
36715;SDS011;22699;51.034;3.730;2022-11-21T17:38:46;13.38;;;3.13;;
36715;SDS011;22699;51.034;3.730;2022-11-21T17:41:17;10.55;;;3.17;;
36715;SDS011;22699;51.034;3.730;2022-11-21T17:43:43;13.27;;;3.35;;
36715;SDS011;22699;51.034;3.730;2022-11-21T17:46:13;14.52;;;4.25;;
36715;SDS011;22699;51.034;3.730;2022-11-21T17:48:42;16.40;;;3.35;;
36715;SDS011;22699;51.034;3.730;2022-11-21T17:51:11;12.57;;;3.20;;
36715;SDS011;22699;51.034;3.730;2022-11-21T17:53:39;12.98;;;3.22;;